createdAt,value
2018-12-04T00:01:53.953Z,6.03
2018-12-04T00:06:57.437Z,5.10
2018-12-04T00:12:00.928Z,2.93
2018-12-04T00:17:04.864Z,4.67
2018-12-04T00:22:08.454Z,2.87
2018-12-04T00:27:11.893Z,1.33
2018-12-04T00:32:15.541Z,4.87
2018-12-04T00:37:20.074Z,3.33
2018-12-04T00:42:23.721Z,3.17
2018-12-04T00:47:27.571Z,2.13
2018-12-04T00:52:31.244Z,1.17
2018-12-04T00:57:35.132Z,2.37
2018-12-04T01:02:38.988Z,1.97
2018-12-04T01:07:42.655Z,1.37
2018-12-04T01:12:46.728Z,1.80
2018-12-04T01:17:50.744Z,3.12
2018-12-04T01:22:56.934Z,5.08
2018-12-04T01:28:00.390Z,1.43
2018-12-04T01:33:04.056Z,3.13
2018-12-04T01:38:07.760Z,1.07
2018-12-04T01:43:11.374Z,5.47
2018-12-04T01:48:15.062Z,2.10
2018-12-04T01:53:18.564Z,1.93
2018-12-04T01:58:22.252Z,8.77
2018-12-04T02:03:25.988Z,1.60
2018-12-04T02:08:30.051Z,4.45
2018-12-04T02:13:33.653Z,4.27
2018-12-04T02:18:37.359Z,4.40
2018-12-04T02:23:40.831Z,1.67
2018-12-04T02:28:44.288Z,4.67
2018-12-04T02:33:47.764Z,3.67
2018-12-04T02:38:51.218Z,1.22
2018-12-04T02:43:54.666Z,3.83
2018-12-04T02:48:58.143Z,5.43
2018-12-04T02:54:01.722Z,4.03
2018-12-04T02:59:05.526Z,5.00
2018-12-04T03:04:09.273Z,3.37
2018-12-04T03:09:12.993Z,4.47
2018-12-04T03:14:16.492Z,1.83
2018-12-04T03:19:20.109Z,2.83
2018-12-04T03:24:23.927Z,4.90
2018-12-04T03:29:27.393Z,3.57
2018-12-04T03:34:30.886Z,2.83
2018-12-04T03:39:34.360Z,5.13
2018-12-04T03:44:37.823Z,5.03
2018-12-04T03:49:41.327Z,2.93
2018-12-04T03:54:44.830Z,3.23
2018-12-04T03:59:48.689Z,2.30
2018-12-04T04:04:52.145Z,2.17
2018-12-04T04:09:55.766Z,2.30
2018-12-04T04:14:59.450Z,3.10
2018-12-04T04:20:03.718Z,2.93
2018-12-04T04:25:07.580Z,2.90
2018-12-04T04:30:11.298Z,2.30
2018-12-04T04:40:27.238Z,2.83
2018-12-04T04:45:30.967Z,1.97
2018-12-04T04:50:34.571Z,4.87
2018-12-04T04:55:38.033Z,1.87
2018-12-04T05:00:41.816Z,3.63
2018-12-04T05:05:45.478Z,2.13
2018-12-04T05:10:49.022Z,5.47
2018-12-04T05:15:52.751Z,3.10
2018-12-04T05:20:56.418Z,4.33
2018-12-04T05:26:00.095Z,6.43
2018-12-04T05:31:05.225Z,2.50
2018-12-04T05:36:09.327Z,1.20
2018-12-04T05:41:12.842Z,2.97
2018-12-04T05:46:16.627Z,1.60
2018-12-04T05:56:34.964Z,1.73
2018-12-04T06:01:38.729Z,4.57
2018-12-04T06:06:42.294Z,5.60
2018-12-04T06:11:46.155Z,4.10
2018-12-04T06:16:50.428Z,1.63
2018-12-04T06:21:54.204Z,1.87
2018-12-04T06:26:57.748Z,6.03
2018-12-04T06:32:01.293Z,1.00
2018-12-04T06:37:04.790Z,3.77
2018-12-04T06:42:08.468Z,1.13
2018-12-04T06:47:12.054Z,4.83
2018-12-04T06:52:16.453Z,1.90
2018-12-04T06:57:20.141Z,0.47
2018-12-04T07:02:23.741Z,0.85
2018-12-04T07:07:27.398Z,0.40
2018-12-04T07:12:31.093Z,0.68
2018-12-04T07:17:34.691Z,1.03
2018-12-04T07:22:38.158Z,3.33
2018-12-04T07:27:41.777Z,8.30
2018-12-04T07:32:45.532Z,0.57
2018-12-04T07:43:02.223Z,0.40
2018-12-04T07:48:05.678Z,0.40
2018-12-04T07:53:09.133Z,0.90
2018-12-04T07:58:12.658Z,0.70
2018-12-04T08:03:16.773Z,0.43
2018-12-04T08:08:20.252Z,0.50
2018-12-04T08:13:24.135Z,0.60
2018-12-04T08:18:27.601Z,3.20
2018-12-04T08:23:31.373Z,0.47
2018-12-04T08:28:34.836Z,3.30
2018-12-04T08:33:38.288Z,2.70
2018-12-04T08:38:41.741Z,0.83
2018-12-04T08:43:45.229Z,0.70
2018-12-04T08:48:48.707Z,0.40
2018-12-04T08:53:52.177Z,0.63
2018-12-04T08:58:55.631Z,1.53
2018-12-04T09:03:59.399Z,2.80
2018-12-04T09:09:03.489Z,1.10
2018-12-04T09:14:07.076Z,3.20
2018-12-04T09:19:10.691Z,3.07
2018-12-04T09:24:14.371Z,2.42
2018-12-04T09:29:18.054Z,4.37
2018-12-04T09:34:21.634Z,1.85
2018-12-04T09:39:25.113Z,0.70
2018-12-04T09:44:28.714Z,1.77
2018-12-04T09:49:32.326Z,1.10
2018-12-04T09:54:36.125Z,0.90
2018-12-04T09:59:39.956Z,1.67
2018-12-04T10:04:43.479Z,1.03
2018-12-04T10:09:47.610Z,0.93
2018-12-04T10:14:51.360Z,1.40
2018-12-04T10:19:54.947Z,1.03
2018-12-04T10:24:58.392Z,1.83
2018-12-04T10:30:01.856Z,0.80
2018-12-04T10:35:05.574Z,1.67
2018-12-04T10:40:09.191Z,0.60
2018-12-04T10:45:12.907Z,1.15
2018-12-04T10:50:16.584Z,0.63
2018-12-04T10:55:20.393Z,0.50
2018-12-04T11:00:29.591Z,2.50
2018-12-04T11:05:33.247Z,7.10
2018-12-04T11:10:36.948Z,0.70
2018-12-04T11:15:40.393Z,1.17
2018-12-04T11:20:43.852Z,0.70
2018-12-04T11:25:48.010Z,1.12
2018-12-04T11:30:51.521Z,2.03
2018-12-04T11:35:56.281Z,1.40
2018-12-04T11:40:59.911Z,0.67
2018-12-04T11:46:03.421Z,3.80
2018-12-04T11:51:06.894Z,2.57
2018-12-04T11:56:10.354Z,1.17
2018-12-04T12:01:18.038Z,1.80
2018-12-04T12:06:21.728Z,0.80
2018-12-04T12:11:25.198Z,0.80
2018-12-04T12:16:28.651Z,4.20
2018-12-04T12:21:32.114Z,4.17
2018-12-04T12:26:35.587Z,1.63
2018-12-04T12:31:39.052Z,1.30
2018-12-04T12:36:42.592Z,2.93
2018-12-04T12:41:46.204Z,1.37
2018-12-04T12:46:49.946Z,2.73
2018-12-04T12:51:53.565Z,13.33
2018-12-04T12:56:57.068Z,1.30
2018-12-04T13:02:00.759Z,6.70
2018-12-04T13:07:04.558Z,3.12
2018-12-04T13:12:08.170Z,1.60
2018-12-04T13:17:11.848Z,0.90
2018-12-04T13:22:15.338Z,2.07
2018-12-04T13:27:19.401Z,3.43
2018-12-04T13:32:23.833Z,1.40
2018-12-04T13:37:27.347Z,1.33
2018-12-04T13:42:31.102Z,1.30
2018-12-04T13:47:34.698Z,2.77
2018-12-04T13:52:38.385Z,1.73
2018-12-04T13:57:42.047Z,1.20
2018-12-04T14:02:45.709Z,4.10
2018-12-04T14:07:49.542Z,3.42
2018-12-04T14:12:53.062Z,3.73
2018-12-04T14:17:57.063Z,2.13
2018-12-04T14:23:00.596Z,1.57
2018-12-04T14:28:04.144Z,3.00
2018-12-04T14:33:07.958Z,1.57
2018-12-04T14:38:11.434Z,2.63
2018-12-04T14:43:15.051Z,2.93
2018-12-04T14:48:19.620Z,2.07
2018-12-04T14:53:23.329Z,1.60
2018-12-04T14:58:26.903Z,5.77
2018-12-04T15:03:30.499Z,9.33
2018-12-04T15:08:34.052Z,5.27
2018-12-04T15:13:37.507Z,2.47
2018-12-04T15:18:41.078Z,2.63
2018-12-04T15:23:44.666Z,3.57
2018-12-04T15:28:48.366Z,2.77
2018-12-04T15:33:51.883Z,3.30
2018-12-04T15:38:55.497Z,2.77
2018-12-04T15:43:59.237Z,3.00
2018-12-04T15:49:03.025Z,6.03
2018-12-04T15:54:06.754Z,5.73
2018-12-04T15:59:10.604Z,2.93
2018-12-04T16:04:14.101Z,3.47
2018-12-04T16:09:17.589Z,4.17
2018-12-04T16:14:21.075Z,4.00
2018-12-04T16:19:24.570Z,3.57
2018-12-04T16:24:28.042Z,3.90
2018-12-04T16:29:31.540Z,3.57
2018-12-04T16:34:35.199Z,3.33
2018-12-04T16:39:38.964Z,2.77
2018-12-04T16:44:42.651Z,5.03
2018-12-04T16:49:46.578Z,9.47
2018-12-04T16:54:50.801Z,8.50
2018-12-04T16:59:54.525Z,3.80
2018-12-04T17:04:58.227Z,4.07
2018-12-04T17:10:01.845Z,3.53
2018-12-04T17:15:06.557Z,8.37
2018-12-04T17:20:10.301Z,6.70
2018-12-04T17:25:15.292Z,5.13
2018-12-04T17:30:19.389Z,3.63
2018-12-04T17:35:24.205Z,5.13
2018-12-04T17:40:27.870Z,4.97
2018-12-04T17:45:31.648Z,4.87
2018-12-04T17:50:35.626Z,4.20
2018-12-04T17:55:39.660Z,4.45
2018-12-04T18:00:43.463Z,5.03
2018-12-04T18:05:47.270Z,5.33
2018-12-04T18:10:51.798Z,7.28
2018-12-04T18:15:55.345Z,22.57
2018-12-04T18:20:58.910Z,14.60
2018-12-04T18:26:03.739Z,16.80
2018-12-04T18:31:07.298Z,14.65
2018-12-04T18:36:11.031Z,15.50
2018-12-04T18:41:15.006Z,9.73
2018-12-04T18:46:18.931Z,7.77
2018-12-04T18:51:22.484Z,8.40
2018-12-04T18:56:26.584Z,8.27
2018-12-04T19:01:30.398Z,7.15
2018-12-04T19:06:34.218Z,14.43
2018-12-04T19:11:39.287Z,27.67
2018-12-04T19:16:42.875Z,19.20
2018-12-04T19:21:46.569Z,42.83
2018-12-04T19:26:50.427Z,22.07
2018-12-04T19:31:54.048Z,11.60
2018-12-04T19:36:57.750Z,11.60
2018-12-04T19:42:01.675Z,8.23
2018-12-04T19:47:05.764Z,8.83
2018-12-04T19:52:09.357Z,8.33
2018-12-04T19:57:13.529Z,9.23
2018-12-04T20:02:18.761Z,8.03
2018-12-04T20:07:22.535Z,11.33
2018-12-04T20:12:26.073Z,10.60
2018-12-04T20:17:30.164Z,10.53
2018-12-04T20:22:33.960Z,10.20
2018-12-04T20:27:37.625Z,10.45
2018-12-04T20:32:42.541Z,19.90
2018-12-04T20:37:46.417Z,21.93
2018-12-04T20:42:50.389Z,16.33
2018-12-04T20:47:56.188Z,13.43
2018-12-04T20:52:59.973Z,13.83
2018-12-04T20:58:04.493Z,21.00
2018-12-04T21:03:08.113Z,32.10
2018-12-04T21:08:11.762Z,18.27
2018-12-04T21:13:15.464Z,42.63
2018-12-04T21:18:19.272Z,43.27
2018-12-04T21:23:23.450Z,22.13
2018-12-04T21:28:27.058Z,19.17
2018-12-04T21:33:36.397Z,18.70
2018-12-04T21:38:45.260Z,14.33
2018-12-04T21:43:54.468Z,14.57
2018-12-04T21:48:58.776Z,14.30
2018-12-04T21:54:02.417Z,18.33
2018-12-04T21:59:06.535Z,15.83
2018-12-04T22:04:10.089Z,21.43
2018-12-04T22:09:13.726Z,16.50
2018-12-04T22:14:17.259Z,13.90
2018-12-04T22:19:21.212Z,14.30
2018-12-04T22:24:25.128Z,17.77
2018-12-04T22:29:29.685Z,13.17
2018-12-04T22:34:33.974Z,15.47
2018-12-04T22:39:37.555Z,19.97
2018-12-04T22:44:41.246Z,14.23
2018-12-04T22:49:44.781Z,12.40
2018-12-04T22:54:48.599Z,15.33
2018-12-04T22:59:52.057Z,20.50
2018-12-04T23:04:55.596Z,21.00
2018-12-04T23:09:59.215Z,17.55
2018-12-04T23:15:03.030Z,17.80
2018-12-04T23:20:06.764Z,28.98
2018-12-04T23:25:10.425Z,21.73
2018-12-04T23:30:14.212Z,20.57
2018-12-04T23:35:18.079Z,18.07
2018-12-04T23:40:22.608Z,20.00
2018-12-04T23:45:27.808Z,16.93
2018-12-04T23:50:31.634Z,28.50
2018-12-04T23:55:35.872Z,32.23
